createdAt,value
2017-08-01T00:02:30.077Z,57.52
2017-08-01T00:22:30.507Z,54.67
2017-08-01T00:42:31.021Z,72.55
2017-08-01T01:02:31.522Z,84.50
2017-08-01T01:22:31.993Z,83.77
2017-08-01T01:42:32.462Z,87.67
2017-08-01T02:02:32.933Z,77.12
2017-08-01T02:22:33.447Z,36.53
2017-08-01T02:42:34.019Z,39.78
2017-08-01T03:02:34.482Z,98.49
2017-08-01T03:21:51.550Z,63.02
2017-08-01T03:41:51.107Z,61.99
2017-08-01T04:01:51.438Z,58.15
2017-08-01T04:21:51.960Z,95.02
2017-08-01T04:41:52.505Z,99.87
2017-08-01T05:06:53.222Z,100.00
2017-08-01T05:26:53.736Z,75.23
2017-08-01T05:46:54.238Z,10.84
2017-08-01T06:06:54.732Z,0.72
2017-08-01T06:26:55.230Z,0.28
2017-08-01T06:46:55.733Z,58.25
2017-08-01T07:06:56.248Z,100.00
2017-08-01T07:26:56.743Z,99.94
2017-08-01T07:46:57.129Z,98.40
2017-08-01T08:06:57.692Z,89.14
2017-08-01T08:26:58.239Z,100.00
2017-08-01T08:46:58.803Z,100.00
2017-08-01T09:06:59.333Z,100.00
2017-08-01T09:26:59.884Z,100.00
2017-08-01T09:47:00.436Z,100.00
2017-08-01T10:07:00.930Z,100.00
2017-08-01T10:27:01.478Z,100.00
2017-08-01T10:47:01.999Z,96.95
2017-08-01T11:07:02.387Z,99.88
2017-08-01T11:27:02.839Z,96.18
2017-08-01T12:02:03.805Z,100.00
2017-08-01T12:22:04.289Z,100.00
2017-08-01T12:42:04.892Z,100.00
2017-08-01T13:02:05.388Z,100.00
2017-08-01T13:22:05.893Z,100.00
2017-08-01T13:42:06.428Z,100.00
2017-08-01T14:02:06.947Z,100.00
2017-08-01T14:22:07.373Z,100.00
2017-08-01T14:42:07.909Z,100.00
2017-08-01T15:02:08.363Z,100.00
2017-08-01T15:22:08.937Z,100.00
2017-08-01T15:42:09.469Z,100.00
2017-08-01T16:02:10.019Z,100.00
2017-08-01T16:22:10.530Z,100.00
2017-08-01T16:42:11.085Z,100.00
2017-08-01T17:02:11.604Z,100.00
2017-08-01T17:22:11.992Z,100.00
2017-08-01T17:42:12.439Z,100.00
2017-08-01T18:02:12.966Z,100.00
2017-08-01T18:22:13.527Z,100.00
2017-08-01T18:42:13.981Z,51.68
2017-08-01T19:02:14.518Z,40.19
2017-08-01T19:22:14.966Z,58.56
2017-08-01T19:52:16.791Z,74.81
2017-08-01T20:13:00.810Z,93.74
2017-08-01T20:33:01.221Z,68.36
2017-08-01T20:53:01.660Z,33.41
2017-08-01T21:13:02.076Z,55.59
2017-08-01T21:33:02.608Z,71.52
2017-08-01T21:53:02.887Z,52.97
2017-08-01T22:13:03.341Z,80.19
2017-08-01T22:33:03.917Z,90.88
2017-08-01T22:53:04.343Z,85.79
2017-08-01T23:13:04.882Z,80.22
2017-08-01T23:33:05.227Z,69.95
2017-08-01T23:53:05.647Z,65.00
